sensor_id;sensor_type;location;lat;lon;timestamp;temperature;humidity
5870;DHT22;2961;47.702;9.410;2023-03-23T00:00:49;6.30;99.90
5870;DHT22;2961;47.702;9.410;2023-03-23T00:03:16;6.30;99.90
5870;DHT22;2961;47.702;9.410;2023-03-23T00:05:44;6.20;99.90
5870;DHT22;2961;47.702;9.410;2023-03-23T00:08:16;6.30;99.90
5870;DHT22;2961;47.702;9.410;2023-03-23T00:10:42;6.30;99.90
5870;DHT22;2961;47.702;9.410;2023-03-23T00:13:09;6.30;99.90
5870;DHT22;2961;47.702;9.410;2023-03-23T00:15:36;6.20;99.90
5870;DHT22;2961;47.702;9.410;2023-03-23T00:18:08;6.30;99.90
5870;DHT22;2961;47.702;9.410;2023-03-23T00:20:46;6.30;99.90
5870;DHT22;2961;47.702;9.410;2023-03-23T00:23:14;6.30;99.90
5870;DHT22;2961;47.702;9.410;2023-03-23T00:25:45;6.30;99.90
5870;DHT22;2961;47.702;9.410;2023-03-23T00:28:12;6.30;99.90
5870;DHT22;2961;47.702;9.410;2023-03-23T00:30:40;6.40;99.90
5870;DHT22;2961;47.702;9.410;2023-03-23T00:33:09;6.40;99.90
5870;DHT22;2961;47.702;9.410;2023-03-23T00:35:38;6.50;99.90
5870;DHT22;2961;47.702;9.410;2023-03-23T00:38:05;6.50;99.90
5870;DHT22;2961;47.702;9.410;2023-03-23T00:40:33;6.60;99.90
5870;DHT22;2961;47.702;9.410;2023-03-23T00:43:01;6.60;99.90
5870;DHT22;2961;47.702;9.410;2023-03-23T00:45:29;6.60;99.90
5870;DHT22;2961;47.702;9.410;2023-03-23T00:47:57;6.70;99.90
5870;DHT22;2961;47.702;9.410;2023-03-23T00:50:28;6.70;99.90
5870;DHT22;2961;47.702;9.410;2023-03-23T00:52:55;6.80;99.90
5870;DHT22;2961;47.702;9.410;2023-03-23T00:55:23;6.80;99.90
5870;DHT22;2961;47.702;9.410;2023-03-23T00:57:51;6.90;99.90
5870;DHT22;2961;47.702;9.410;2023-03-23T01:00:19;6.90;99.90
5870;DHT22;2961;47.702;9.410;2023-03-23T01:02:46;6.90;99.90
5870;DHT22;2961;47.702;9.410;2023-03-23T01:05:13;7.00;99.90
5870;DHT22;2961;47.702;9.410;2023-03-23T01:07:42;6.90;99.90
5870;DHT22;2961;47.702;9.410;2023-03-23T01:10:11;6.80;99.90
5870;DHT22;2961;47.702;9.410;2023-03-23T01:12:42;6.80;99.90
5870;DHT22;2961;47.702;9.410;2023-03-23T01:15:09;6.70;99.90
5870;DHT22;2961;47.702;9.410;2023-03-23T01:17:39;6.70;99.90
5870;DHT22;2961;47.702;9.410;2023-03-23T01:20:07;6.60;99.90
5870;DHT22;2961;47.702;9.410;2023-03-23T01:22:34;6.70;99.90
5870;DHT22;2961;47.702;9.410;2023-03-23T01:25:03;6.80;99.90
5870;DHT22;2961;47.702;9.410;2023-03-23T01:27:30;6.90;99.90
5870;DHT22;2961;47.702;9.410;2023-03-23T01:29:57;6.90;99.90
5870;DHT22;2961;47.702;9.410;2023-03-23T01:32:23;6.80;99.90
5870;DHT22;2961;47.702;9.410;2023-03-23T01:34:50;6.80;99.90
5870;DHT22;2961;47.702;9.410;2023-03-23T01:37:17;6.80;99.90
5870;DHT22;2961;47.702;9.410;2023-03-23T01:39:45;6.80;99.90
5870;DHT22;2961;47.702;9.410;2023-03-23T01:42:13;6.90;99.90
5870;DHT22;2961;47.702;9.410;2023-03-23T01:45:22;7.10;99.90
5870;DHT22;2961;47.702;9.410;2023-03-23T01:47:53;7.10;99.90
5870;DHT22;2961;47.702;9.410;2023-03-23T01:50:23;7.10;99.90
5870;DHT22;2961;47.702;9.410;2023-03-23T01:52:53;7.10;99.90
5870;DHT22;2961;47.702;9.410;2023-03-23T01:55:22;7.00;99.90
5870;DHT22;2961;47.702;9.410;2023-03-23T01:57:51;7.00;99.90
5870;DHT22;2961;47.702;9.410;2023-03-23T02:00:18;6.90;99.90
5870;DHT22;2961;47.702;9.410;2023-03-23T02:02:48;7.00;99.90
5870;DHT22;2961;47.702;9.410;2023-03-23T02:05:21;7.00;99.90
5870;DHT22;2961;47.702;9.410;2023-03-23T02:07:50;7.00;99.90
5870;DHT22;2961;47.702;9.410;2023-03-23T02:10:17;7.00;99.90
5870;DHT22;2961;47.702;9.410;2023-03-23T02:12:44;7.10;99.90
5870;DHT22;2961;47.702;9.410;2023-03-23T02:15:12;7.30;99.90
5870;DHT22;2961;47.702;9.410;2023-03-23T02:17:43;7.40;99.90
5870;DHT22;2961;47.702;9.410;2023-03-23T02:20:23;7.30;99.90
5870;DHT22;2961;47.702;9.410;2023-03-23T02:23:11;7.30;99.90
5870;DHT22;2961;47.702;9.410;2023-03-23T02:26:09;7.40;99.90
5870;DHT22;2961;47.702;9.410;2023-03-23T02:28:54;7.40;99.90
5870;DHT22;2961;47.702;9.410;2023-03-23T02:31:54;7.40;99.90
5870;DHT22;2961;47.702;9.410;2023-03-23T02:34:27;7.40;99.90
5870;DHT22;2961;47.702;9.410;2023-03-23T02:36:59;7.50;99.90
5870;DHT22;2961;47.702;9.410;2023-03-23T02:39:30;7.50;99.90
5870;DHT22;2961;47.702;9.410;2023-03-23T02:42:00;7.50;99.90
5870;DHT22;2961;47.702;9.410;2023-03-23T02:44:30;7.50;99.90
5870;DHT22;2961;47.702;9.410;2023-03-23T02:46:59;7.30;99.90
5870;DHT22;2961;47.702;9.410;2023-03-23T02:49:30;7.30;99.90
5870;DHT22;2961;47.702;9.410;2023-03-23T02:51:59;7.20;99.90
5870;DHT22;2961;47.702;9.410;2023-03-23T02:54:27;7.20;99.90
5870;DHT22;2961;47.702;9.410;2023-03-23T02:56:56;7.20;99.90
5870;DHT22;2961;47.702;9.410;2023-03-23T02:59:23;7.20;99.90
5870;DHT22;2961;47.702;9.410;2023-03-23T03:02:05;7.30;99.90
5870;DHT22;2961;47.702;9.410;2023-03-23T03:04:35;7.30;99.90
5870;DHT22;2961;47.702;9.410;2023-03-23T03:07:30;7.40;99.90
5870;DHT22;2961;47.702;9.410;2023-03-23T03:10:03;7.40;99.90
5870;DHT22;2961;47.702;9.410;2023-03-23T03:12:36;7.50;99.90
5870;DHT22;2961;47.702;9.410;2023-03-23T03:15:13;7.50;99.90
5870;DHT22;2961;47.702;9.410;2023-03-23T03:17:45;7.60;99.90
5870;DHT22;2961;47.702;9.410;2023-03-23T03:20:14;7.50;99.90
5870;DHT22;2961;47.702;9.410;2023-03-23T03:22:44;7.40;99.90
5870;DHT22;2961;47.702;9.410;2023-03-23T03:25:12;7.50;99.90
5870;DHT22;2961;47.702;9.410;2023-03-23T03:27:42;7.50;99.90
5870;DHT22;2961;47.702;9.410;2023-03-23T03:30:12;7.40;99.90
5870;DHT22;2961;47.702;9.410;2023-03-23T03:32:45;7.50;99.90
5870;DHT22;2961;47.702;9.410;2023-03-23T03:35:15;7.50;99.90
5870;DHT22;2961;47.702;9.410;2023-03-23T03:37:43;7.40;99.90
5870;DHT22;2961;47.702;9.410;2023-03-23T03:40:13;7.50;99.90
5870;DHT22;2961;47.702;9.410;2023-03-23T03:42:42;7.60;99.90
5870;DHT22;2961;47.702;9.410;2023-03-23T03:45:12;7.70;99.90
5870;DHT22;2961;47.702;9.410;2023-03-23T03:47:39;7.70;99.90
5870;DHT22;2961;47.702;9.410;2023-03-23T03:50:07;7.80;99.90
5870;DHT22;2961;47.702;9.410;2023-03-23T03:52:36;7.80;99.90
5870;DHT22;2961;47.702;9.410;2023-03-23T03:55:04;7.90;99.90
5870;DHT22;2961;47.702;9.410;2023-03-23T03:57:32;8.00;99.90
5870;DHT22;2961;47.702;9.410;2023-03-23T03:59:59;8.10;99.90
5870;DHT22;2961;47.702;9.410;2023-03-23T04:02:26;8.20;99.90
5870;DHT22;2961;47.702;9.410;2023-03-23T04:04:52;8.20;99.90
5870;DHT22;2961;47.702;9.410;2023-03-23T04:07:20;8.20;99.90
5870;DHT22;2961;47.702;9.410;2023-03-23T04:09:48;8.20;99.90
5870;DHT22;2961;47.702;9.410;2023-03-23T04:12:15;8.20;99.90
5870;DHT22;2961;47.702;9.410;2023-03-23T04:14:42;8.10;99.90
5870;DHT22;2961;47.702;9.410;2023-03-23T04:17:09;8.00;99.90
5870;DHT22;2961;47.702;9.410;2023-03-23T04:19:36;7.90;99.90
5870;DHT22;2961;47.702;9.410;2023-03-23T04:22:03;7.90;99.90
5870;DHT22;2961;47.702;9.410;2023-03-23T04:24:30;7.90;99.90
5870;DHT22;2961;47.702;9.410;2023-03-23T04:27:00;7.90;99.90
5870;DHT22;2961;47.702;9.410;2023-03-23T04:29:27;7.90;99.90
5870;DHT22;2961;47.702;9.410;2023-03-23T04:31:54;7.90;99.90
5870;DHT22;2961;47.702;9.410;2023-03-23T04:34:22;7.90;99.90
5870;DHT22;2961;47.702;9.410;2023-03-23T04:36:49;7.90;99.90
5870;DHT22;2961;47.702;9.410;2023-03-23T04:39:17;7.90;99.90
5870;DHT22;2961;47.702;9.410;2023-03-23T04:41:43;7.90;99.90
5870;DHT22;2961;47.702;9.410;2023-03-23T04:44:12;7.90;99.90
5870;DHT22;2961;47.702;9.410;2023-03-23T04:46:44;7.90;99.90
5870;DHT22;2961;47.702;9.410;2023-03-23T04:49:15;7.90;99.90
5870;DHT22;2961;47.702;9.410;2023-03-23T04:51:47;8.10;99.90
5870;DHT22;2961;47.702;9.410;2023-03-23T04:54:16;8.50;99.90
5870;DHT22;2961;47.702;9.410;2023-03-23T04:56:43;8.60;99.90
5870;DHT22;2961;47.702;9.410;2023-03-23T04:59:09;8.80;99.90
5870;DHT22;2961;47.702;9.410;2023-03-23T05:01:40;8.70;99.90
5870;DHT22;2961;47.702;9.410;2023-03-23T05:04:11;8.60;99.90
5870;DHT22;2961;47.702;9.410;2023-03-23T05:06:38;8.50;99.90
5870;DHT22;2961;47.702;9.410;2023-03-23T05:09:06;8.40;99.90
5870;DHT22;2961;47.702;9.410;2023-03-23T05:11:33;8.30;99.90
5870;DHT22;2961;47.702;9.410;2023-03-23T05:14:00;8.40;99.90
5870;DHT22;2961;47.702;9.410;2023-03-23T05:16:27;8.30;99.90
5870;DHT22;2961;47.702;9.410;2023-03-23T05:18:55;8.40;99.90
5870;DHT22;2961;47.702;9.410;2023-03-23T05:21:23;8.30;99.90
5870;DHT22;2961;47.702;9.410;2023-03-23T05:23:51;8.30;99.90
5870;DHT22;2961;47.702;9.410;2023-03-23T05:26:20;8.20;99.90
5870;DHT22;2961;47.702;9.410;2023-03-23T05:28:46;8.10;99.90
5870;DHT22;2961;47.702;9.410;2023-03-23T05:31:17;8.10;99.90
5870;DHT22;2961;47.702;9.410;2023-03-23T05:33:44;8.00;99.90
5870;DHT22;2961;47.702;9.410;2023-03-23T05:36:13;8.00;99.90
5870;DHT22;2961;47.702;9.410;2023-03-23T05:38:40;8.00;99.90
5870;DHT22;2961;47.702;9.410;2023-03-23T05:41:10;8.10;99.90
5870;DHT22;2961;47.702;9.410;2023-03-23T05:43:37;8.20;99.90
5870;DHT22;2961;47.702;9.410;2023-03-23T05:46:04;8.20;99.90
5870;DHT22;2961;47.702;9.410;2023-03-23T05:48:31;8.20;99.90
5870;DHT22;2961;47.702;9.410;2023-03-23T05:50:58;8.20;99.90
5870;DHT22;2961;47.702;9.410;2023-03-23T05:53:26;8.20;99.90
5870;DHT22;2961;47.702;9.410;2023-03-23T05:55:58;8.20;99.90
5870;DHT22;2961;47.702;9.410;2023-03-23T05:58:25;8.30;99.90
5870;DHT22;2961;47.702;9.410;2023-03-23T06:00:52;8.30;99.90
5870;DHT22;2961;47.702;9.410;2023-03-23T06:03:19;8.40;99.90
5870;DHT22;2961;47.702;9.410;2023-03-23T06:05:46;8.50;99.90
5870;DHT22;2961;47.702;9.410;2023-03-23T06:08:13;8.60;99.90
5870;DHT22;2961;47.702;9.410;2023-03-23T06:10:41;8.80;99.90
5870;DHT22;2961;47.702;9.410;2023-03-23T06:13:08;8.80;99.90
5870;DHT22;2961;47.702;9.410;2023-03-23T06:15:34;8.90;99.90
5870;DHT22;2961;47.702;9.410;2023-03-23T06:18:02;8.90;99.90
5870;DHT22;2961;47.702;9.410;2023-03-23T06:20:30;8.90;99.90
5870;DHT22;2961;47.702;9.410;2023-03-23T06:22:58;9.00;99.90
5870;DHT22;2961;47.702;9.410;2023-03-23T06:25:25;9.00;99.90
5870;DHT22;2961;47.702;9.410;2023-03-23T06:27:53;9.00;99.90
5870;DHT22;2961;47.702;9.410;2023-03-23T06:30:20;9.10;99.90
5870;DHT22;2961;47.702;9.410;2023-03-23T06:32:47;9.20;99.90
5870;DHT22;2961;47.702;9.410;2023-03-23T06:35:14;9.20;99.90
5870;DHT22;2961;47.702;9.410;2023-03-23T06:37:41;9.40;99.90
5870;DHT22;2961;47.702;9.410;2023-03-23T06:40:09;9.30;99.90
5870;DHT22;2961;47.702;9.410;2023-03-23T06:42:36;9.30;99.90
5870;DHT22;2961;47.702;9.410;2023-03-23T06:45:05;9.40;99.90
5870;DHT22;2961;47.702;9.410;2023-03-23T06:47:33;9.40;99.90
5870;DHT22;2961;47.702;9.410;2023-03-23T06:50:00;9.40;99.90
5870;DHT22;2961;47.702;9.410;2023-03-23T06:52:27;9.50;99.90
5870;DHT22;2961;47.702;9.410;2023-03-23T06:54:54;9.60;99.90
5870;DHT22;2961;47.702;9.410;2023-03-23T06:57:21;9.70;99.90
5870;DHT22;2961;47.702;9.410;2023-03-23T06:59:48;9.80;99.90
5870;DHT22;2961;47.702;9.410;2023-03-23T07:02:16;9.90;99.90
5870;DHT22;2961;47.702;9.410;2023-03-23T07:04:42;10.00;99.90
5870;DHT22;2961;47.702;9.410;2023-03-23T07:07:10;10.10;99.90
5870;DHT22;2961;47.702;9.410;2023-03-23T07:09:40;10.30;99.90
5870;DHT22;2961;47.702;9.410;2023-03-23T07:12:07;10.50;99.90
5870;DHT22;2961;47.702;9.410;2023-03-23T07:14:35;10.70;99.90
5870;DHT22;2961;47.702;9.410;2023-03-23T07:17:03;10.90;99.90
5870;DHT22;2961;47.702;9.410;2023-03-23T07:19:31;11.10;99.90
5870;DHT22;2961;47.702;9.410;2023-03-23T07:21:58;11.50;99.90
5870;DHT22;2961;47.702;9.410;2023-03-23T07:24:25;11.70;99.90
5870;DHT22;2961;47.702;9.410;2023-03-23T07:26:51;11.90;99.90
5870;DHT22;2961;47.702;9.410;2023-03-23T07:29:18;12.00;99.90
5870;DHT22;2961;47.702;9.410;2023-03-23T07:31:45;12.00;99.90
5870;DHT22;2961;47.702;9.410;2023-03-23T07:34:12;12.00;99.90
5870;DHT22;2961;47.702;9.410;2023-03-23T07:37:01;12.00;99.90
5870;DHT22;2961;47.702;9.410;2023-03-23T07:39:28;12.00;99.90
5870;DHT22;2961;47.702;9.410;2023-03-23T07:41:55;12.10;99.90
5870;DHT22;2961;47.702;9.410;2023-03-23T07:44:22;12.10;99.90
5870;DHT22;2961;47.702;9.410;2023-03-23T07:46:49;12.30;99.90
5870;DHT22;2961;47.702;9.410;2023-03-23T07:49:16;12.50;99.90
5870;DHT22;2961;47.702;9.410;2023-03-23T07:51:43;12.80;99.90
5870;DHT22;2961;47.702;9.410;2023-03-23T07:54:12;12.90;99.90
5870;DHT22;2961;47.702;9.410;2023-03-23T07:56:39;13.20;99.90
5870;DHT22;2961;47.702;9.410;2023-03-23T07:59:07;13.40;99.90
5870;DHT22;2961;47.702;9.410;2023-03-23T08:01:34;13.60;99.90
5870;DHT22;2961;47.702;9.410;2023-03-23T08:04:00;13.90;99.90
5870;DHT22;2961;47.702;9.410;2023-03-23T08:06:28;14.20;99.90
5870;DHT22;2961;47.702;9.410;2023-03-23T08:08:54;14.50;99.90
5870;DHT22;2961;47.702;9.410;2023-03-23T08:11:23;14.70;99.90
5870;DHT22;2961;47.702;9.410;2023-03-23T08:13:50;14.80;99.90
5870;DHT22;2961;47.702;9.410;2023-03-23T08:16:17;14.70;99.90
5870;DHT22;2961;47.702;9.410;2023-03-23T08:18:45;14.80;99.90
5870;DHT22;2961;47.702;9.410;2023-03-23T08:21:12;14.90;99.90
5870;DHT22;2961;47.702;9.410;2023-03-23T08:23:39;15.00;99.90
5870;DHT22;2961;47.702;9.410;2023-03-23T08:26:07;15.10;99.90
5870;DHT22;2961;47.702;9.410;2023-03-23T08:28:36;15.10;99.90
5870;DHT22;2961;47.702;9.410;2023-03-23T08:31:06;15.00;99.90
5870;DHT22;2961;47.702;9.410;2023-03-23T08:33:33;15.10;99.90
5870;DHT22;2961;47.702;9.410;2023-03-23T08:36:00;15.10;99.90
5870;DHT22;2961;47.702;9.410;2023-03-23T08:38:28;15.10;99.90
5870;DHT22;2961;47.702;9.410;2023-03-23T08:40:57;15.10;99.90
5870;DHT22;2961;47.702;9.410;2023-03-23T08:43:24;15.10;99.90
5870;DHT22;2961;47.702;9.410;2023-03-23T08:45:53;15.10;99.90
5870;DHT22;2961;47.702;9.410;2023-03-23T08:48:20;15.30;99.90
5870;DHT22;2961;47.702;9.410;2023-03-23T08:50:47;15.50;99.90
5870;DHT22;2961;47.702;9.410;2023-03-23T08:53:14;15.60;99.90
5870;DHT22;2961;47.702;9.410;2023-03-23T08:55:41;15.60;99.90
5870;DHT22;2961;47.702;9.410;2023-03-23T08:58:08;15.60;99.90
5870;DHT22;2961;47.702;9.410;2023-03-23T09:00:35;15.70;99.90
5870;DHT22;2961;47.702;9.410;2023-03-23T09:03:03;15.70;99.90
5870;DHT22;2961;47.702;9.410;2023-03-23T09:05:30;15.70;99.90
5870;DHT22;2961;47.702;9.410;2023-03-23T09:07:57;15.70;99.90
5870;DHT22;2961;47.702;9.410;2023-03-23T09:10:25;15.80;99.90
5870;DHT22;2961;47.702;9.410;2023-03-23T09:12:53;15.80;99.90
5870;DHT22;2961;47.702;9.410;2023-03-23T09:15:20;16.00;99.90
5870;DHT22;2961;47.702;9.410;2023-03-23T09:17:49;16.10;99.90
5870;DHT22;2961;47.702;9.410;2023-03-23T09:20:20;16.10;99.90
5870;DHT22;2961;47.702;9.410;2023-03-23T09:22:49;16.10;99.90
5870;DHT22;2961;47.702;9.410;2023-03-23T09:25:18;16.10;99.90
5870;DHT22;2961;47.702;9.410;2023-03-23T09:27:48;16.00;99.90
5870;DHT22;2961;47.702;9.410;2023-03-23T09:30:19;15.90;99.90
5870;DHT22;2961;47.702;9.410;2023-03-23T09:32:46;15.80;99.90
5870;DHT22;2961;47.702;9.410;2023-03-23T09:35:14;15.70;99.90
5870;DHT22;2961;47.702;9.410;2023-03-23T09:37:44;15.60;99.90
5870;DHT22;2961;47.702;9.410;2023-03-23T09:40:14;15.70;99.90
5870;DHT22;2961;47.702;9.410;2023-03-23T09:45:31;16.00;99.90
5870;DHT22;2961;47.702;9.410;2023-03-23T09:48:11;16.20;99.90
5870;DHT22;2961;47.702;9.410;2023-03-23T09:50:43;16.40;99.90
5870;DHT22;2961;47.702;9.410;2023-03-23T09:53:17;16.40;99.90
5870;DHT22;2961;47.702;9.410;2023-03-23T09:55:45;16.60;99.90
5870;DHT22;2961;47.702;9.410;2023-03-23T09:58:17;16.70;99.90
5870;DHT22;2961;47.702;9.410;2023-03-23T10:00:48;16.90;99.90
5870;DHT22;2961;47.702;9.410;2023-03-23T10:03:19;17.10;99.90
5870;DHT22;2961;47.702;9.410;2023-03-23T10:05:48;17.30;99.90
5870;DHT22;2961;47.702;9.410;2023-03-23T10:08:19;17.40;99.90
5870;DHT22;2961;47.702;9.410;2023-03-23T10:10:52;17.30;99.90
5870;DHT22;2961;47.702;9.410;2023-03-23T10:13:43;17.30;99.90
5870;DHT22;2961;47.702;9.410;2023-03-23T10:16:15;17.40;99.90
5870;DHT22;2961;47.702;9.410;2023-03-23T10:18:48;17.60;99.90
5870;DHT22;2961;47.702;9.410;2023-03-23T10:21:19;17.70;99.90
5870;DHT22;2961;47.702;9.410;2023-03-23T10:23:52;17.80;99.90
5870;DHT22;2961;47.702;9.410;2023-03-23T10:26:34;17.90;99.90
5870;DHT22;2961;47.702;9.410;2023-03-23T10:29:12;17.90;99.90
5870;DHT22;2961;47.702;9.410;2023-03-23T10:31:43;17.90;99.90
5870;DHT22;2961;47.702;9.410;2023-03-23T10:34:16;17.90;99.70
5870;DHT22;2961;47.702;9.410;2023-03-23T10:36:54;17.80;99.90
5870;DHT22;2961;47.702;9.410;2023-03-23T10:39:27;18.00;99.90
5870;DHT22;2961;47.702;9.410;2023-03-23T10:41:55;18.20;99.30
5870;DHT22;2961;47.702;9.410;2023-03-23T10:44:24;18.40;98.70
5870;DHT22;2961;47.702;9.410;2023-03-23T10:46:57;18.50;97.60
5870;DHT22;2961;47.702;9.410;2023-03-23T10:49:27;18.40;98.20
5870;DHT22;2961;47.702;9.410;2023-03-23T10:52:01;18.40;97.30
5870;DHT22;2961;47.702;9.410;2023-03-23T10:54:36;18.40;97.00
5870;DHT22;2961;47.702;9.410;2023-03-23T10:57:13;18.50;96.80
5870;DHT22;2961;47.702;9.410;2023-03-23T10:59:46;18.40;96.70
5870;DHT22;2961;47.702;9.410;2023-03-23T11:02:16;18.30;96.90
5870;DHT22;2961;47.702;9.410;2023-03-23T11:04:46;18.40;96.40
5870;DHT22;2961;47.702;9.410;2023-03-23T11:07:18;18.30;96.60
5870;DHT22;2961;47.702;9.410;2023-03-23T11:10:05;18.20;96.20
5870;DHT22;2961;47.702;9.410;2023-03-23T11:12:34;18.20;96.30
5870;DHT22;2961;47.702;9.410;2023-03-23T11:15:21;18.00;95.10
5870;DHT22;2961;47.702;9.410;2023-03-23T11:17:55;18.10;94.70
5870;DHT22;2961;47.702;9.410;2023-03-23T11:20:25;18.00;94.80
5870;DHT22;2961;47.702;9.410;2023-03-23T11:22:54;17.90;94.50
5870;DHT22;2961;47.702;9.410;2023-03-23T11:25:22;18.10;94.00
5870;DHT22;2961;47.702;9.410;2023-03-23T11:27:50;18.10;94.20
5870;DHT22;2961;47.702;9.410;2023-03-23T11:30:24;18.20;95.10
5870;DHT22;2961;47.702;9.410;2023-03-23T11:32:52;18.40;93.30
5870;DHT22;2961;47.702;9.410;2023-03-23T11:35:22;18.30;93.10
5870;DHT22;2961;47.702;9.410;2023-03-23T11:37:52;18.10;92.70
5870;DHT22;2961;47.702;9.410;2023-03-23T11:40:23;17.90;93.50
5870;DHT22;2961;47.702;9.410;2023-03-23T11:42:58;17.90;93.40
5870;DHT22;2961;47.702;9.410;2023-03-23T11:45:32;17.80;93.90
5870;DHT22;2961;47.702;9.410;2023-03-23T11:48:07;17.80;93.20
5870;DHT22;2961;47.702;9.410;2023-03-23T11:50:47;17.90;94.90
5870;DHT22;2961;47.702;9.410;2023-03-23T11:53:30;17.90;94.70
5870;DHT22;2961;47.702;9.410;2023-03-23T11:56:09;17.90;95.30
5870;DHT22;2961;47.702;9.410;2023-03-23T11:58:37;17.80;96.90
5870;DHT22;2961;47.702;9.410;2023-03-23T12:01:12;17.90;94.80
5870;DHT22;2961;47.702;9.410;2023-03-23T12:04:02;17.80;95.30
5870;DHT22;2961;47.702;9.410;2023-03-23T12:06:36;17.90;95.00
5870;DHT22;2961;47.702;9.410;2023-03-23T12:09:18;17.90;94.80
5870;DHT22;2961;47.702;9.410;2023-03-23T12:11:58;18.10;94.30
5870;DHT22;2961;47.702;9.410;2023-03-23T12:14:35;18.30;95.00
5870;DHT22;2961;47.702;9.410;2023-03-23T12:17:22;18.50;92.80
5870;DHT22;2961;47.702;9.410;2023-03-23T12:19:59;18.70;92.00
5870;DHT22;2961;47.702;9.410;2023-03-23T12:22:40;18.90;93.30
5870;DHT22;2961;47.702;9.410;2023-03-23T12:25:30;19.00;92.20
5870;DHT22;2961;47.702;9.410;2023-03-23T12:28:06;19.10;92.90
5870;DHT22;2961;47.702;9.410;2023-03-23T12:30:40;19.10;91.50
5870;DHT22;2961;47.702;9.410;2023-03-23T12:33:17;19.00;92.50
5870;DHT22;2961;47.702;9.410;2023-03-23T12:35:52;19.10;91.60
5870;DHT22;2961;47.702;9.410;2023-03-23T12:38:38;19.10;91.50
5870;DHT22;2961;47.702;9.410;2023-03-23T12:41:15;19.40;91.20
5870;DHT22;2961;47.702;9.410;2023-03-23T12:43:50;19.60;90.10
5870;DHT22;2961;47.702;9.410;2023-03-23T12:46:35;19.70;91.00
5870;DHT22;2961;47.702;9.410;2023-03-23T12:49:09;19.70;85.70
5870;DHT22;2961;47.702;9.410;2023-03-23T12:51:44;19.80;87.40
5870;DHT22;2961;47.702;9.410;2023-03-23T12:54:19;19.60;89.40
5870;DHT22;2961;47.702;9.410;2023-03-23T12:56:53;19.60;89.30
5870;DHT22;2961;47.702;9.410;2023-03-23T12:59:28;19.50;90.10
5870;DHT22;2961;47.702;9.410;2023-03-23T13:02:01;19.40;88.00
5870;DHT22;2961;47.702;9.410;2023-03-23T13:04:32;19.30;90.00
5870;DHT22;2961;47.702;9.410;2023-03-23T13:07:06;19.30;90.00
5870;DHT22;2961;47.702;9.410;2023-03-23T13:09:44;19.30;90.20
5870;DHT22;2961;47.702;9.410;2023-03-23T13:12:13;19.30;90.50
5870;DHT22;2961;47.702;9.410;2023-03-23T13:14:50;19.20;90.10
5870;DHT22;2961;47.702;9.410;2023-03-23T13:17:30;18.90;90.10
5870;DHT22;2961;47.702;9.410;2023-03-23T13:20:12;18.90;90.30
5870;DHT22;2961;47.702;9.410;2023-03-23T13:22:45;18.80;90.70
5870;DHT22;2961;47.702;9.410;2023-03-23T13:25:18;18.70;90.30
5870;DHT22;2961;47.702;9.410;2023-03-23T13:27:56;18.70;90.00
5870;DHT22;2961;47.702;9.410;2023-03-23T13:30:25;18.50;90.90
5870;DHT22;2961;47.702;9.410;2023-03-23T13:33:02;18.30;90.40
5870;DHT22;2961;47.702;9.410;2023-03-23T13:35:34;18.10;91.10
5870;DHT22;2961;47.702;9.410;2023-03-23T13:38:12;18.10;91.50
5870;DHT22;2961;47.702;9.410;2023-03-23T13:40:43;18.00;91.50
5870;DHT22;2961;47.702;9.410;2023-03-23T13:43:10;18.10;90.60
5870;DHT22;2961;47.702;9.410;2023-03-23T13:45:46;18.10;91.00
5870;DHT22;2961;47.702;9.410;2023-03-23T13:48:22;18.00;91.70
5870;DHT22;2961;47.702;9.410;2023-03-23T13:50:52;17.90;92.20
5870;DHT22;2961;47.702;9.410;2023-03-23T13:53:25;17.80;92.40
5870;DHT22;2961;47.702;9.410;2023-03-23T13:56:06;17.70;93.20
5870;DHT22;2961;47.702;9.410;2023-03-23T13:58:45;17.50;93.30
5870;DHT22;2961;47.702;9.410;2023-03-23T14:01:16;17.20;94.20
5870;DHT22;2961;47.702;9.410;2023-03-23T14:03:46;17.10;94.90
5870;DHT22;2961;47.702;9.410;2023-03-23T14:06:18;17.00;94.70
5870;DHT22;2961;47.702;9.410;2023-03-23T14:08:48;17.10;95.00
5870;DHT22;2961;47.702;9.410;2023-03-23T14:11:19;17.00;94.80
5870;DHT22;2961;47.702;9.410;2023-03-23T14:13:58;16.90;95.00
5870;DHT22;2961;47.702;9.410;2023-03-23T14:16:34;17.00;94.70
5870;DHT22;2961;47.702;9.410;2023-03-23T14:19:03;17.00;94.60
5870;DHT22;2961;47.702;9.410;2023-03-23T14:21:33;17.00;95.70
5870;DHT22;2961;47.702;9.410;2023-03-23T14:24:02;16.90;95.80
5870;DHT22;2961;47.702;9.410;2023-03-23T14:26:29;16.80;95.60
5870;DHT22;2961;47.702;9.410;2023-03-23T14:28:59;16.60;96.00
5870;DHT22;2961;47.702;9.410;2023-03-23T14:31:29;16.50;96.50
5870;DHT22;2961;47.702;9.410;2023-03-23T14:33:56;16.40;96.60
5870;DHT22;2961;47.702;9.410;2023-03-23T14:36:29;16.30;96.60
5870;DHT22;2961;47.702;9.410;2023-03-23T14:39:00;16.20;96.50
5870;DHT22;2961;47.702;9.410;2023-03-23T14:41:31;16.20;96.40
5870;DHT22;2961;47.702;9.410;2023-03-23T14:44:00;16.20;96.70
5870;DHT22;2961;47.702;9.410;2023-03-23T14:46:30;16.20;98.00
5870;DHT22;2961;47.702;9.410;2023-03-23T14:49:00;16.20;97.60
5870;DHT22;2961;47.702;9.410;2023-03-23T14:51:27;16.20;97.80
5870;DHT22;2961;47.702;9.410;2023-03-23T14:53:54;16.00;97.40
5870;DHT22;2961;47.702;9.410;2023-03-23T14:56:22;16.00;97.50
5870;DHT22;2961;47.702;9.410;2023-03-23T14:58:53;16.00;98.00
5870;DHT22;2961;47.702;9.410;2023-03-23T15:01:23;16.00;97.90
5870;DHT22;2961;47.702;9.410;2023-03-23T15:03:57;16.00;98.40
5870;DHT22;2961;47.702;9.410;2023-03-23T15:06:27;15.90;97.80
5870;DHT22;2961;47.702;9.410;2023-03-23T15:08:57;15.90;98.30
5870;DHT22;2961;47.702;9.410;2023-03-23T15:11:29;15.90;99.20
5870;DHT22;2961;47.702;9.410;2023-03-23T15:13:59;16.00;98.30
5870;DHT22;2961;47.702;9.410;2023-03-23T15:16:31;16.10;98.00
5870;DHT22;2961;47.702;9.410;2023-03-23T15:19:00;16.10;98.00
5870;DHT22;2961;47.702;9.410;2023-03-23T15:21:30;16.00;98.10
5870;DHT22;2961;47.702;9.410;2023-03-23T15:23:58;16.10;97.30
5870;DHT22;2961;47.702;9.410;2023-03-23T15:26:28;16.10;97.30
5870;DHT22;2961;47.702;9.410;2023-03-23T15:29:14;16.10;97.40
5870;DHT22;2961;47.702;9.410;2023-03-23T15:31:43;16.10;97.20
5870;DHT22;2961;47.702;9.410;2023-03-23T15:34:24;16.10;97.10
5870;DHT22;2961;47.702;9.410;2023-03-23T15:36:56;15.90;97.20
5870;DHT22;2961;47.702;9.410;2023-03-23T15:39:23;15.90;98.00
5870;DHT22;2961;47.702;9.410;2023-03-23T15:41:51;15.70;98.30
5870;DHT22;2961;47.702;9.410;2023-03-23T15:44:24;15.70;98.80
5870;DHT22;2961;47.702;9.410;2023-03-23T15:47:02;15.60;98.90
5870;DHT22;2961;47.702;9.410;2023-03-23T15:49:31;15.60;99.30
5870;DHT22;2961;47.702;9.410;2023-03-23T15:51:57;15.60;99.90
5870;DHT22;2961;47.702;9.410;2023-03-23T15:54:29;15.50;99.90
5870;DHT22;2961;47.702;9.410;2023-03-23T15:56:57;15.40;99.90
5870;DHT22;2961;47.702;9.410;2023-03-23T15:59:23;15.40;99.90
5870;DHT22;2961;47.702;9.410;2023-03-23T16:01:50;15.30;99.90
5870;DHT22;2961;47.702;9.410;2023-03-23T16:04:18;15.30;99.90
5870;DHT22;2961;47.702;9.410;2023-03-23T16:06:47;15.20;99.90
5870;DHT22;2961;47.702;9.410;2023-03-23T16:09:17;15.10;99.90
5870;DHT22;2961;47.702;9.410;2023-03-23T16:11:44;15.10;99.90
5870;DHT22;2961;47.702;9.410;2023-03-23T16:14:11;15.00;99.90
5870;DHT22;2961;47.702;9.410;2023-03-23T16:16:41;15.00;99.90
5870;DHT22;2961;47.702;9.410;2023-03-23T16:19:10;15.00;99.90
5870;DHT22;2961;47.702;9.410;2023-03-23T16:21:37;15.00;99.90
5870;DHT22;2961;47.702;9.410;2023-03-23T16:24:06;14.90;99.90
5870;DHT22;2961;47.702;9.410;2023-03-23T16:26:34;14.80;99.90
5870;DHT22;2961;47.702;9.410;2023-03-23T16:29:01;14.80;99.90
5870;DHT22;2961;47.702;9.410;2023-03-23T16:31:28;14.70;99.90
5870;DHT22;2961;47.702;9.410;2023-03-23T16:33:55;14.70;99.90